Time;durP1;ratioP1;P1;durP2;ratioP2;P2;SDS_P1;SDS_P2;PMS_P1;PMS_P2;Temp;Humidity;BMP_temperature;BMP_pressure;BME280_temperature;BME280_humidity;BME280_pressure;Samples;Min_cycle;Max_cycle;Signal;HPM_P1;HPM_P2
2023/09/28 00:00:35;;;;;;;15.60;14.30;;;19.70;99.90;;;;;;5057515;28;20482;-84
2023/09/28 00:02:50;;;;;;;16.87;15.37;;;19.70;99.90;;;;;;5057397;28;20465;-84
2023/09/28 00:05:19;;;;;;;16.63;15.03;;;19.70;99.90;;;;;;5057498;28;20463;-79
2023/09/28 00:07:48;;;;;;;16.40;15.10;;;19.70;99.90;;;;;;5057892;28;21051;-84
2023/09/28 00:10:19;;;;;;;16.50;15.20;;;19.60;99.90;;;;;;5057636;28;20540;-85
2023/09/28 00:12:47;;;;;;;15.13;13.83;;;19.60;99.90;;;;;;5058018;28;20463;-85
2023/09/28 00:15:14;;;;;;;15.77;14.37;;;19.60;99.90;;;;;;5056340;28;20524;-80
2023/09/28 00:17:41;;;;;;;15.20;13.80;;;19.60;99.90;;;;;;5056674;28;20537;-81
2023/09/28 00:20:14;;;;;;;17.20;15.77;;;19.60;99.90;;;;;;5055279;28;20502;-80
2023/09/28 00:22:41;;;;;;;16.00;14.70;;;19.60;99.90;;;;;;5056521;28;20873;-85
2023/09/28 00:25:12;;;;;;;15.60;14.30;;;19.60;99.90;;;;;;5055969;28;20463;-85
2023/09/28 00:27:43;;;;;;;16.80;15.20;;;19.50;99.90;;;;;;5056983;28;20471;-85
2023/09/28 00:30:18;;;;;;;15.23;13.93;;;19.50;99.90;;;;;;5056056;28;20490;-80
2023/09/28 00:32:45;;;;;;;17.17;15.47;;;19.50;99.90;;;;;;5056882;28;20550;-79
2023/09/28 00:35:11;;;;;;;16.97;15.53;;;19.50;99.90;;;;;;5056068;28;20546;-80
2023/09/28 00:37:38;;;;;;;16.97;15.53;;;19.50;99.90;;;;;;5056379;28;20459;-80
2023/09/28 00:40:09;;;;;;;17.43;15.93;;;19.50;99.90;;;;;;5056186;28;20467;-80
2023/09/28 00:42:37;;;;;;;15.40;14.20;;;19.50;99.90;;;;;;5057557;28;20521;-85
2023/09/28 00:45:04;;;;;;;15.30;14.00;;;19.50;99.90;;;;;;5057958;28;20507;-85
2023/09/28 00:47:33;;;;;;;16.50;15.07;;;19.50;99.90;;;;;;5058793;28;20538;-84
2023/09/28 00:49:59;;;;;;;16.07;14.67;;;19.50;99.90;;;;;;5059660;28;20470;-80
2023/09/28 00:52:27;;;;;;;16.97;15.47;;;19.50;99.90;;;;;;5056396;28;20948;-85
2023/09/28 00:54:53;;;;;;;16.47;15.17;;;19.50;99.90;;;;;;5057407;28;20536;-85
2023/09/28 00:57:20;;;;;;;16.40;15.10;;;19.50;99.90;;;;;;5056633;28;20471;-80
2023/09/28 00:59:47;;;;;;;17.83;16.40;;;19.50;99.90;;;;;;5056585;28;20482;-84
2023/09/28 01:02:14;;;;;;;17.70;16.20;;;19.50;99.90;;;;;;5056216;28;20521;-83
2023/09/28 01:04:41;;;;;;;20.50;18.53;;;19.40;99.90;;;;;;5056155;28;20490;-86
2023/09/28 01:07:08;;;;;;;17.70;16.20;;;19.40;99.90;;;;;;5054500;28;20474;-81
2023/09/28 01:09:36;;;;;;;19.93;18.20;;;19.40;99.90;;;;;;5055711;28;20550;-86
2023/09/28 01:12:06;;;;;;;17.80;16.10;;;19.40;99.90;;;;;;5055691;28;20486;-85
2023/09/28 01:14:35;;;;;;;15.77;14.37;;;19.40;99.90;;;;;;5055737;28;20546;-85
2023/09/28 01:17:04;;;;;;;17.20;15.70;;;19.50;99.90;;;;;;5055033;28;20778;-79
2023/09/28 01:19:30;;;;;;;16.73;15.23;;;19.50;99.90;;;;;;5057899;28;20467;-85
2023/09/28 01:22:02;;;;;;;15.67;14.27;;;19.50;99.90;;;;;;5054761;28;20493;-81
2023/09/28 01:24:29;;;;;;;16.67;15.07;;;19.50;99.90;;;;;;5054787;28;20467;-86
2023/09/28 01:26:57;;;;;;;14.60;13.40;;;19.40;99.90;;;;;;5054586;28;20472;-80
2023/09/28 01:29:23;;;;;;;15.23;14.03;;;19.50;99.90;;;;;;5056137;28;20530;-81
2023/09/28 01:31:50;;;;;;;16.97;15.20;;;19.50;99.90;;;;;;5061055;28;20470;-85
2023/09/28 01:34:19;;;;;;;16.23;14.83;;;19.50;99.90;;;;;;5058022;28;20471;-84
2023/09/28 01:36:46;;;;;;;14.10;12.70;;;19.50;99.90;;;;;;5055625;28;20463;-80
2023/09/28 01:39:12;;;;;;;13.23;11.93;;;19.50;99.90;;;;;;5054410;28;20475;-85
2023/09/28 01:41:40;;;;;;;13.47;12.27;;;19.50;99.90;;;;;;5055395;28;20463;-80
2023/09/28 01:44:09;;;;;;;14.43;13.03;;;19.50;99.90;;;;;;5054013;28;20488;-80
2023/09/28 01:46:36;;;;;;;14.40;13.17;;;19.40;99.90;;;;;;5056054;28;20550;-85
2023/09/28 01:49:05;;;;;;;14.63;13.43;;;19.40;99.90;;;;;;5054817;28;20498;-81
2023/09/28 01:51:33;;;;;;;14.37;13.17;;;19.40;99.90;;;;;;5055299;28;20470;-85
2023/09/28 01:53:59;;;;;;;13.83;12.70;;;19.40;99.90;;;;;;5055388;28;20475;-85
2023/09/28 01:56:26;;;;;;;15.53;14.13;;;19.40;99.90;;;;;;5056400;28;20939;-85
2023/09/28 01:58:53;;;;;;;14.30;13.00;;;19.30;99.90;;;;;;5055351;28;20483;-80
2023/09/28 02:01:25;;;;;;;14.27;12.83;;;19.40;99.90;;;;;;5054934;28;20933;-85
2023/09/28 02:03:51;;;;;;;14.73;12.80;;;19.40;99.90;;;;;;5059118;28;20471;-84
2023/09/28 02:06:19;;;;;;;12.80;11.80;;;19.40;99.90;;;;;;5055846;28;20933;-79
2023/09/28 02:08:45;;;;;;;14.70;13.27;;;19.40;99.90;;;;;;5040695;28;20497;-84
2023/09/28 02:11:12;;;;;;;14.60;13.30;;;19.40;99.90;;;;;;5055921;28;20853;-86
2023/09/28 02:13:38;;;;;;;13.77;12.50;;;19.40;99.90;;;;;;5054678;28;20980;-86
2023/09/28 02:16:11;;;;;;;14.60;13.30;;;19.40;99.90;;;;;;5054730;28;20486;-83
2023/09/28 02:18:37;;;;;;;14.60;13.23;;;19.40;99.90;;;;;;5053825;28;20471;-85
2023/09/28 02:21:11;;;;;;;14.67;13.37;;;19.30;99.90;;;;;;5054381;28;20802;-86
2023/09/28 02:23:37;;;;;;;13.07;11.80;;;19.30;99.90;;;;;;5054659;28;20489;-81
2023/09/28 02:26:07;;;;;;;14.43;12.73;;;19.30;99.90;;;;;;5053986;28;20467;-86
2023/09/28 02:28:35;;;;;;;14.37;13.07;;;19.30;99.90;;;;;;5055272;28;20466;-79
2023/09/28 02:31:09;;;;;;;17.00;12.60;;;19.30;99.90;;;;;;5053051;28;20475;-80
2023/09/28 02:33:35;;;;;;;14.03;12.83;;;19.30;99.90;;;;;;5054263;28;20477;-79
2023/09/28 02:36:02;;;;;;;13.73;12.60;;;19.30;99.90;;;;;;5053410;28;20463;-80
2023/09/28 02:38:29;;;;;;;11.67;10.77;;;19.30;99.90;;;;;;5054058;28;20300;-80
2023/09/28 02:40:56;;;;;;;14.17;12.70;;;19.30;99.90;;;;;;5044071;28;20495;-85
2023/09/28 02:43:22;;;;;;;12.93;11.93;;;19.30;99.90;;;;;;5053765;28;20474;-80
2023/09/28 02:45:49;;;;;;;14.63;13.27;;;19.30;99.90;;;;;;5053540;28;20459;-81
2023/09/28 02:48:16;;;;;;;13.00;11.70;;;19.30;99.90;;;;;;5052160;28;20834;-81
2023/09/28 02:50:43;;;;;;;13.10;11.90;;;19.20;99.90;;;;;;5054116;28;20479;-85
2023/09/28 02:53:10;;;;;;;13.00;11.70;;;19.20;99.90;;;;;;5053352;28;20482;-84
2023/09/28 02:55:37;;;;;;;13.90;12.73;;;19.10;99.90;;;;;;5053497;28;20467;-85
2023/09/28 02:58:29;;;;;;;13.50;12.37;;;19.10;99.90;;;;;;5053115;28;20945;-85
2023/09/28 03:00:58;;;;;;;13.93;12.63;;;19.10;99.90;;;;;;5026341;28;20471;-84
2023/09/28 03:03:25;;;;;;;14.97;13.43;;;19.10;99.90;;;;;;5053513;28;20533;-80
2023/09/28 03:05:54;;;;;;;14.77;13.47;;;19.10;99.90;;;;;;5057003;28;20482;-84
2023/09/28 03:08:21;;;;;;;14.57;13.07;;;19.00;99.90;;;;;;5053375;28;20538;-79
2023/09/28 03:10:48;;;;;;;12.17;11.13;;;19.10;99.90;;;;;;5053198;28;20984;-81
2023/09/28 03:13:19;;;;;;;12.20;11.10;;;19.10;99.90;;;;;;5052442;28;20467;-84
2023/09/28 03:16:01;;;;;;;13.50;12.40;;;19.10;99.90;;;;;;5053355;28;20471;-84
2023/09/28 03:18:29;;;;;;;11.10;10.20;;;19.10;99.90;;;;;;5051991;28;20466;-85
2023/09/28 03:20:58;;;;;;;13.07;11.97;;;19.10;99.90;;;;;;5053063;28;20866;-85
2023/09/28 03:23:28;;;;;;;13.60;12.20;;;19.10;99.90;;;;;;5051915;28;20474;-80
2023/09/28 03:26:01;;;;;;;12.67;11.60;;;19.00;99.90;;;;;;5052131;28;20577;-81
2023/09/28 03:28:30;;;;;;;13.20;11.93;;;19.00;99.90;;;;;;5050643;28;20459;-80
2023/09/28 03:30:57;;;;;;;12.33;11.10;;;19.00;99.90;;;;;;5052399;28;20994;-80
2023/09/28 03:33:23;;;;;;;12.87;11.63;;;18.90;99.90;;;;;;5052506;28;20475;-80
2023/09/28 03:35:52;;;;;;;13.37;12.07;;;18.90;99.90;;;;;;5052922;28;20813;-81
2023/09/28 03:38:19;;;;;;;13.03;11.73;;;18.90;99.90;;;;;;5052223;28;20984;-85
2023/09/28 03:41:00;;;;;;;14.00;11.83;;;18.90;99.90;;;;;;5052866;28;20483;-86
2023/09/28 03:43:27;;;;;;;11.90;10.90;;;18.90;99.90;;;;;;5052698;28;20956;-81
2023/09/28 03:45:54;;;;;;;13.37;11.90;;;18.80;99.90;;;;;;5052403;28;20470;-80
2023/09/28 03:48:24;;;;;;;14.70;12.50;;;18.80;99.90;;;;;;5052424;28;20494;-81
2023/09/28 03:50:52;;;;;;;13.37;12.07;;;18.80;99.90;;;;;;5053085;28;20546;-81
2023/09/28 03:53:19;;;;;;;13.00;12.00;;;18.80;99.90;;;;;;5052678;28;20533;-81
2023/09/28 03:55:49;;;;;;;14.63;13.40;;;18.70;99.90;;;;;;5052855;28;20467;-85
2023/09/28 03:58:16;;;;;;;13.00;11.83;;;18.70;99.90;;;;;;5052215;28;20475;-85
2023/09/28 04:00:43;;;;;;;14.07;12.57;;;18.70;99.90;;;;;;5052970;28;20547;-84
2023/09/28 04:03:11;;;;;;;12.77;11.20;;;18.70;99.90;;;;;;5052494;28;20467;-83
2023/09/28 04:05:38;;;;;;;15.60;11.40;;;18.70;99.90;;;;;;5052715;28;20478;-85
2023/09/28 04:08:07;;;;;;;14.00;12.57;;;18.80;99.90;;;;;;5052776;28;20479;-79
2023/09/28 04:10:34;;;;;;;12.77;11.50;;;18.80;99.90;;;;;;5052101;28;20581;-79
2023/09/28 04:13:02;;;;;;;11.17;10.27;;;18.80;99.90;;;;;;5053166;28;20478;-84
2023/09/28 04:15:29;;;;;;;12.33;11.23;;;18.80;99.90;;;;;;5052626;28;20814;-85
2023/09/28 04:17:56;;;;;;;11.20;10.33;;;18.80;99.90;;;;;;5054175;28;20490;-80
2023/09/28 04:20:23;;;;;;;11.57;10.60;;;18.80;99.90;;;;;;5051867;28;20980;-81
2023/09/28 04:22:51;;;;;;;11.10;10.10;;;18.80;99.90;;;;;;5052367;28;20467;-80
2023/09/28 04:25:21;;;;;;;11.73;10.83;;;18.80;99.90;;;;;;5051918;28;20468;-81
2023/09/28 04:27:49;;;;;;;12.73;11.67;;;18.80;99.90;;;;;;5052406;28;20463;-86
2023/09/28 04:30:16;;;;;;;15.20;12.53;;;18.80;99.90;;;;;;5052462;28;20482;-86
2023/09/28 04:32:43;;;;;;;16.60;12.97;;;18.70;99.90;;;;;;5052745;28;20497;-85
2023/09/28 04:35:13;;;;;;;13.97;12.57;;;18.70;99.90;;;;;;5052279;28;20464;-85
2023/09/28 04:37:40;;;;;;;13.07;11.97;;;18.70;99.90;;;;;;5051422;28;20463;-80
2023/09/28 04:40:10;;;;;;;13.47;12.20;;;18.70;99.90;;;;;;5052188;28;20502;-80
2023/09/28 04:42:39;;;;;;;12.27;11.10;;;18.60;99.90;;;;;;5054168;28;20529;-81
2023/09/28 04:45:07;;;;;;;15.20;13.90;;;18.70;99.90;;;;;;5056544;28;20964;-80
2023/09/28 04:47:34;;;;;;;14.60;13.30;;;18.70;99.90;;;;;;5055484;28;20467;-80
2023/09/28 04:50:26;;;;;;;13.90;11.40;;;18.60;99.90;;;;;;5056772;28;20489;-84
2023/09/28 04:52:54;;;;;;;12.90;11.80;;;18.60;99.90;;;;;;5056166;28;20796;-86
2023/09/28 04:55:21;;;;;;;12.60;11.60;;;18.60;99.90;;;;;;5057557;28;20469;-86
2023/09/28 04:57:52;;;;;;;13.30;12.00;;;18.60;99.90;;;;;;5056044;28;20783;-85
2023/09/28 05:00:22;;;;;;;13.50;11.40;;;18.60;99.90;;;;;;5054907;28;20462;-84
2023/09/28 05:02:49;;;;;;;12.10;11.10;;;18.60;99.90;;;;;;5056083;28;20965;-87
2023/09/28 05:05:16;;;;;;;12.87;11.77;;;18.60;99.90;;;;;;5054710;28;20495;-80
2023/09/28 05:07:43;;;;;;;14.30;13.10;;;18.60;99.90;;;;;;5056103;28;20581;-86
2023/09/28 05:10:11;;;;;;;14.33;13.07;;;18.60;99.90;;;;;;5055101;28;20506;-80
2023/09/28 05:12:38;;;;;;;13.83;12.30;;;18.60;99.90;;;;;;5055983;28;20510;-80
2023/09/28 05:15:08;;;;;;;14.07;12.60;;;18.60;99.90;;;;;;5054648;28;20553;-80
2023/09/28 05:17:35;;;;;;;15.10;13.60;;;18.60;99.90;;;;;;5055956;28;20522;-85
2023/09/28 05:20:03;;;;;;;11.40;10.30;;;18.60;99.90;;;;;;5055115;28;20806;-81
2023/09/28 05:22:31;;;;;;;13.47;12.17;;;18.60;99.90;;;;;;5055564;28;20502;-80
2023/09/28 05:25:01;;;;;;;12.43;11.23;;;18.60;99.90;;;;;;5055184;28;20462;-85
2023/09/28 05:27:30;;;;;;;12.67;11.40;;;18.60;99.90;;;;;;5055676;28;20467;-86
2023/09/28 05:29:57;;;;;;;12.40;11.33;;;18.60;99.90;;;;;;5056259;28;20471;-85
2023/09/28 05:32:25;;;;;;;12.83;11.60;;;18.60;99.90;;;;;;5056667;28;20471;-87
2023/09/28 05:34:52;;;;;;;11.47;10.67;;;18.70;99.90;;;;;;5055297;28;20984;-86
2023/09/28 05:37:19;;;;;;;14.33;12.60;;;18.70;99.90;;;;;;5055051;28;20467;-85
2023/09/28 05:39:46;;;;;;;11.90;10.90;;;18.70;99.90;;;;;;5054920;28;20521;-84
2023/09/28 05:42:13;;;;;;;11.67;10.63;;;18.70;99.90;;;;;;5055417;28;20459;-85
2023/09/28 05:44:40;;;;;;;11.27;10.17;;;18.70;99.90;;;;;;5055133;28;20471;-85
2023/09/28 05:47:07;;;;;;;12.70;11.50;;;18.70;99.90;;;;;;5054248;28;20535;-85
2023/09/28 05:49:36;;;;;;;15.07;13.87;;;18.70;99.90;;;;;;5054718;28;20474;-85
2023/09/28 05:52:03;;;;;;;13.70;12.40;;;18.70;99.90;;;;;;5054583;28;20475;-84
2023/09/28 05:54:30;;;;;;;14.50;13.30;;;18.70;99.90;;;;;;5055037;28;20499;-85
2023/09/28 05:56:57;;;;;;;17.47;13.80;;;18.80;99.90;;;;;;5056457;28;20468;-86
2023/09/28 05:59:27;;;;;;;13.30;12.00;;;18.70;99.90;;;;;;5057883;28;20521;-85
2023/09/28 06:01:54;;;;;;;14.50;13.03;;;18.80;99.90;;;;;;5058139;28;20463;-85
2023/09/28 06:04:21;;;;;;;12.90;11.63;;;18.80;99.90;;;;;;5060564;28;20502;-85
2023/09/28 06:06:50;;;;;;;11.73;10.83;;;18.80;99.90;;;;;;5055750;28;20471;-85
2023/09/28 06:09:19;;;;;;;14.10;12.80;;;18.80;99.90;;;;;;5056192;28;20526;-85
2023/09/28 06:11:47;;;;;;;15.50;13.87;;;18.90;99.90;;;;;;5039873;28;20487;-86
2023/09/28 06:14:15;;;;;;;16.53;14.90;;;18.90;99.90;;;;;;5046617;28;20460;-85
2023/09/28 06:16:42;;;;;;;16.63;14.93;;;18.90;99.90;;;;;;5057589;28;20545;-86
2023/09/28 06:29:56;;;;;;;;;;;;;;;;;;;;;
2023/09/28 06:36:20;;;;;;;;;;;;;;;;;;;;;
2023/09/28 06:59:51;;;;;;;;;;;;;;;;;;;;;
2023/09/28 07:02:19;;;;;;;13.47;12.27;;;19.30;99.90;;;;;;4952973;28;20475;-79
2023/09/28 07:09:57;;;;;;;17.23;15.10;;;19.50;99.90;;;;;;5097628;23;20523;-80
2023/09/28 07:12:24;;;;;;;15.93;14.20;;;19.50;99.90;;;;;;5072975;28;20466;-79
2023/09/28 07:14:51;;;;;;;16.37;14.40;;;19.50;99.90;;;;;;5073177;28;20478;-80
2023/09/28 07:17:23;;;;;;;15.03;13.43;;;19.50;99.90;;;;;;5072753;28;20536;-78
2023/09/28 07:19:54;;;;;;;14.07;12.90;;;19.60;99.90;;;;;;5072996;28;20485;-81
2023/09/28 07:22:22;;;;;;;14.73;13.27;;;19.60;99.90;;;;;;5073456;28;20501;-81
2023/09/28 07:24:49;;;;;;;14.37;13.07;;;19.70;99.90;;;;;;5072409;28;20478;-79
2023/09/28 07:27:19;;;;;;;14.13;12.80;;;19.70;99.90;;;;;;5073602;28;20535;-80
2023/09/28 07:29:48;;;;;;;15.30;13.83;;;19.80;99.90;;;;;;5073366;28;20474;-79
2023/09/28 07:32:15;;;;;;;13.90;12.60;;;19.80;99.90;;;;;;5074482;28;20458;-79
2023/09/28 07:34:44;;;;;;;13.57;12.37;;;19.90;99.90;;;;;;5073091;28;20474;-80
2023/09/28 07:37:13;;;;;;;14.30;12.83;;;19.90;99.90;;;;;;5073795;28;20474;-80
2023/09/28 07:39:40;;;;;;;16.20;14.63;;;19.90;99.90;;;;;;5072908;28;20490;-79
2023/09/28 07:42:16;;;;;;;16.07;14.57;;;20.00;99.90;;;;;;5074403;28;20466;-80
2023/09/28 07:44:44;;;;;;;16.23;14.73;;;20.00;99.90;;;;;;5072036;28;20470;-81
2023/09/28 07:47:11;;;;;;;13.67;12.50;;;20.00;99.90;;;;;;5073283;28;20462;-80
2023/09/28 07:49:38;;;;;;;15.20;13.90;;;20.10;99.90;;;;;;5056667;28;20484;-80
2023/09/28 07:52:08;;;;;;;13.47;12.17;;;20.10;99.90;;;;;;5065582;28;20975;-79
2023/09/28 07:54:35;;;;;;;14.07;12.87;;;20.10;99.90;;;;;;5073722;28;20470;-80
2023/09/28 07:57:03;;;;;;;14.77;13.53;;;20.20;99.90;;;;;;5073782;28;20505;-81
2023/09/28 07:59:31;;;;;;;14.50;13.30;;;20.30;99.90;;;;;;5073599;28;20478;-80
2023/09/28 08:01:58;;;;;;;14.00;12.60;;;20.30;99.90;;;;;;5073438;28;23311;-81
2023/09/28 08:04:25;;;;;;;15.13;13.57;;;20.40;99.90;;;;;;5073385;28;20478;-80
2023/09/28 08:09:53;;;;;;;14.50;13.00;;;20.50;99.90;;;;;;5069605;28;20466;-81
2023/09/28 08:12:37;;;;;;;14.60;13.30;;;20.50;99.90;;;;;;5063606;28;20470;-81
2023/09/28 08:15:05;;;;;;;15.40;14.03;;;20.60;99.90;;;;;;5071706;28;20446;-80
2023/09/28 08:17:33;;;;;;;15.27;13.87;;;20.60;99.90;;;;;;5076826;28;20467;-80
2023/09/28 08:20:00;;;;;;;15.90;14.50;;;20.70;99.90;;;;;;5077029;28;20474;-86
2023/09/28 08:22:28;;;;;;;15.73;13.93;;;20.70;99.90;;;;;;5077231;28;20473;-81
2023/09/28 08:24:55;;;;;;;15.00;13.63;;;20.80;99.90;;;;;;5077048;28;20497;-83
2023/09/28 08:27:25;;;;;;;15.70;14.37;;;20.80;99.90;;;;;;5077224;28;20515;-85
2023/09/28 08:29:52;;;;;;;14.73;13.60;;;20.80;99.90;;;;;;5056841;28;20493;-86
2023/09/28 08:32:19;;;;;;;16.10;14.60;;;20.90;99.90;;;;;;5070068;28;20545;-84
2023/09/28 08:34:46;;;;;;;13.73;12.53;;;20.90;99.90;;;;;;5075839;28;20545;-85
2023/09/28 08:37:18;;;;;;;13.70;12.50;;;21.00;99.90;;;;;;5076389;28;20477;-85
2023/09/28 08:39:46;;;;;;;12.90;11.80;;;21.00;99.90;;;;;;5076241;28;20524;-80
2023/09/28 08:42:15;;;;;;;14.30;13.17;;;21.10;99.90;;;;;;5044994;28;20471;-80
2023/09/28 08:44:42;;;;;;;13.27;12.27;;;21.20;99.90;;;;;;5070480;28;20509;-81
2023/09/28 08:47:15;;;;;;;13.43;12.13;;;21.20;99.90;;;;;;5075877;28;20871;-80
2023/09/28 08:49:46;;;;;;;14.10;12.90;;;21.30;99.90;;;;;;5059446;28;20853;-80
2023/09/28 08:52:15;;;;;;;13.17;12.20;;;21.40;99.90;;;;;;5055493;28;20493;-80
2023/09/28 08:54:50;;;;;;;15.30;13.83;;;21.50;99.90;;;;;;5060602;28;20483;-81
2023/09/28 08:57:19;;;;;;;15.43;14.13;;;21.50;99.90;;;;;;5064746;28;20531;-80
2023/09/28 08:59:48;;;;;;;14.60;12.57;;;21.60;99.90;;;;;;5067300;28;20472;-80
2023/09/28 09:02:24;;;;;;;14.77;13.47;;;21.70;99.90;;;;;;5074362;28;20814;-81
2023/09/28 09:04:52;;;;;;;14.33;13.03;;;21.70;99.90;;;;;;5075750;28;20476;-80
2023/09/28 09:07:21;;;;;;;13.30;12.20;;;21.80;99.90;;;;;;5076617;28;20530;-80
2023/09/28 09:09:50;;;;;;;12.30;11.23;;;21.80;99.90;;;;;;5058980;28;20502;-80
2023/09/28 09:12:20;;;;;;;12.30;11.00;;;21.90;99.90;;;;;;5063763;28;20860;-86
2023/09/28 09:14:51;;;;;;;11.20;10.10;;;21.90;99.90;;;;;;5075595;28;20467;-79
2023/09/28 09:17:19;;;;;;;11.07;10.20;;;22.00;99.90;;;;;;5064221;28;20451;-82
2023/09/28 09:19:47;;;;;;;12.07;10.93;;;22.10;99.90;;;;;;5059347;28;20466;-85
2023/09/28 09:22:29;;;;;;;11.57;10.57;;;22.10;99.90;;;;;;5075329;28;20458;-84
2023/09/28 09:24:56;;;;;;;12.00;10.87;;;22.20;99.90;;;;;;5075556;28;20462;-84
2023/09/28 09:27:28;;;;;;;11.23;10.33;;;22.20;99.90;;;;;;5055479;28;20471;-86
2023/09/28 09:29:58;;;;;;;12.33;11.40;;;22.30;99.90;;;;;;5069423;28;20462;-86
2023/09/28 09:35:21;;;;;;;11.93;10.93;;;22.30;99.90;;;;;;5120297;22;20890;-80
2023/09/28 09:37:53;;;;;;;11.80;10.80;;;22.30;99.90;;;;;;5052760;28;20554;-79
2023/09/28 09:40:21;;;;;;;14.60;11.30;;;22.30;99.90;;;;;;5046162;28;21312;-85
2023/09/28 09:42:51;;;;;;;12.43;11.33;;;22.30;99.90;;;;;;5052837;28;20802;-83
2023/09/28 09:45:20;;;;;;;12.00;11.03;;;22.30;99.90;;;;;;5055948;28;20478;-86
2023/09/28 09:47:51;;;;;;;12.10;11.00;;;22.30;99.90;;;;;;5054741;28;20467;-87
2023/09/28 09:50:19;;;;;;;12.20;11.20;;;22.30;99.90;;;;;;5051266;28;20469;-86
2023/09/28 09:52:46;;;;;;;14.00;12.67;;;22.30;99.90;;;;;;5055689;28;20525;-86
2023/09/28 09:55:22;;;;;;;13.53;12.10;;;22.40;99.90;;;;;;5055641;28;20805;-85
2023/09/28 09:58:01;;;;;;;12.33;11.23;;;22.40;99.90;;;;;;5054055;28;20476;-87
2023/09/28 10:00:32;;;;;;;12.57;11.07;;;22.40;99.90;;;;;;5043166;28;20471;-86
2023/09/28 10:03:04;;;;;;;13.13;12.03;;;22.40;99.90;;;;;;5043377;28;20478;-86
2023/09/28 10:05:34;;;;;;;12.10;11.10;;;22.50;99.90;;;;;;5053223;28;20487;-86
2023/09/28 10:08:03;;;;;;;13.13;12.03;;;22.60;99.90;;;;;;5052489;28;20463;-85
2023/09/28 10:10:40;;;;;;;14.47;13.20;;;22.60;99.90;;;;;;5054399;28;20471;-86
2023/09/28 10:13:14;;;;;;;13.17;12.10;;;22.60;99.90;;;;;;5054156;28;20566;-80
2023/09/28 10:15:45;;;;;;;12.30;10.90;;;22.60;99.90;;;;;;5053377;28;20548;-81
2023/09/28 10:18:15;;;;;;;12.97;11.83;;;22.60;99.90;;;;;;5053690;28;20467;-80
2023/09/28 10:20:43;;;;;;;12.43;11.30;;;22.70;99.90;;;;;;5054324;28;20851;-87
2023/09/28 10:23:26;;;;;;;12.50;11.23;;;22.70;99.90;;;;;;5054664;28;20858;-80
2023/09/28 10:25:54;;;;;;;12.93;11.63;;;22.70;99.90;;;;;;5050750;28;20463;-80
2023/09/28 10:28:27;;;;;;;12.17;10.97;;;22.70;99.90;;;;;;5054280;28;20462;-85
2023/09/28 10:31:09;;;;;;;12.40;11.20;;;22.80;99.90;;;;;;5044989;28;20473;-81
2023/09/28 10:33:57;;;;;;;11.37;10.37;;;22.70;99.90;;;;;;5053070;28;20469;-81
2023/09/28 10:36:26;;;;;;;11.77;10.87;;;22.80;99.90;;;;;;5053067;28;20467;-81
2023/09/28 10:39:14;;;;;;;11.30;10.37;;;22.80;99.90;;;;;;5052778;28;20459;-86
2023/09/28 10:41:46;;;;;;;10.87;9.90;;;22.90;99.90;;;;;;5053627;28;20471;-88
2023/09/28 10:44:16;;;;;;;9.53;8.83;;;22.90;99.90;;;;;;5053687;28;20476;-81
2023/09/28 10:46:44;;;;;;;12.57;11.37;;;23.00;99.90;;;;;;5052662;28;20477;-81
2023/09/28 10:49:15;;;;;;;11.20;10.40;;;23.00;99.90;;;;;;5053464;28;20466;-87
2023/09/28 10:51:44;;;;;;;10.27;9.40;;;23.10;99.90;;;;;;5053271;28;20472;-81
2023/09/28 10:54:13;;;;;;;11.20;10.10;;;23.10;99.90;;;;;;5053061;28;20455;-81
2023/09/28 10:56:40;;;;;;;11.60;10.60;;;23.20;99.90;;;;;;5052539;28;20485;-82
2023/09/28 10:59:09;;;;;;;11.60;10.43;;;23.10;99.90;;;;;;5053251;28;20483;-81
2023/09/28 11:01:41;;;;;;;10.10;9.10;;;23.10;99.90;;;;;;5052982;28;20474;-81
2023/09/28 11:04:08;;;;;;;10.60;9.80;;;23.20;99.90;;;;;;5054356;28;20528;-81
2023/09/28 11:06:35;;;;;;;13.80;12.50;;;23.20;99.90;;;;;;5054100;28;20637;-81
2023/09/28 11:09:15;;;;;;;10.23;9.43;;;23.20;99.90;;;;;;5053520;28;20552;-81
2023/09/28 11:11:42;;;;;;;29.90;26.90;;;23.20;99.90;;;;;;5053438;28;20467;-81
2023/09/28 11:14:10;;;;;;;52.37;46.87;;;23.20;99.90;;;;;;5057906;28;20463;-81
2023/09/28 11:16:39;;;;;;;41.83;37.60;;;23.10;99.90;;;;;;5054575;28;20526;-80
2023/09/28 11:19:09;;;;;;;19.97;17.97;;;23.10;99.90;;;;;;5053306;28;20521;-81
2023/09/28 11:21:37;;;;;;;15.57;14.03;;;23.20;99.90;;;;;;5053626;28;20469;-81
2023/09/28 11:24:04;;;;;;;13.67;12.37;;;23.20;99.90;;;;;;5053482;28;20881;-81
2023/09/28 11:26:32;;;;;;;23.33;21.10;;;23.30;99.90;;;;;;5053027;28;20817;-80
2023/09/28 11:29:00;;;;;;;30.00;26.93;;;23.30;99.90;;;;;;5052737;28;20585;-81
2023/09/28 11:31:35;;;;;;;37.30;33.40;;;23.30;99.90;;;;;;5052692;28;20513;-80
2023/09/28 11:34:02;;;;;;;38.80;34.97;;;23.30;99.90;;;;;;5038204;28;20474;-81
2023/09/28 11:36:31;;;;;;;35.37;31.67;;;23.30;99.90;;;;;;5052215;28;20479;-85
2023/09/28 11:38:58;;;;;;;38.10;34.27;;;23.20;99.90;;;;;;5052271;28;20856;-81
2023/09/28 11:41:30;;;;;;;24.43;22.03;;;23.20;99.90;;;;;;5051610;28;20981;-82
2023/09/28 11:43:57;;;;;;;30.23;26.10;;;23.30;99.90;;;;;;5052176;28;20485;-82
2023/09/28 11:46:26;;;;;;;34.83;31.30;;;23.30;99.90;;;;;;5051666;28;21212;-81
2023/09/28 11:49:04;;;;;;;25.87;23.40;;;23.30;99.90;;;;;;5052735;28;20461;-82
2023/09/28 11:51:35;;;;;;;15.63;14.33;;;23.40;99.90;;;;;;5052008;28;20466;-81
2023/09/28 11:54:02;;;;;;;11.70;10.60;;;23.50;99.90;;;;;;5052352;28;20520;-81
2023/09/28 11:56:32;;;;;;;11.33;10.40;;;23.50;99.90;;;;;;5042511;28;20642;-82
2023/09/28 11:58:59;;;;;;;15.83;14.23;;;23.60;99.90;;;;;;5051936;28;20455;-82
2023/09/28 12:01:28;;;;;;;18.43;16.63;;;23.60;99.90;;;;;;5053052;28;20463;-82
2023/09/28 12:03:57;;;;;;;16.43;15.00;;;23.70;99.90;;;;;;5054151;28;20525;-81
2023/09/28 12:06:24;;;;;;;16.70;14.93;;;23.70;99.90;;;;;;5053637;28;20477;-85
2023/09/28 12:08:52;;;;;;;17.50;15.80;;;23.70;99.90;;;;;;5053994;28;20529;-86
2023/09/28 12:11:20;;;;;;;16.70;15.20;;;23.70;99.90;;;;;;5054168;28;20553;-87
2023/09/28 12:13:50;;;;;;;18.30;16.50;;;23.70;99.90;;;;;;5053386;28;20485;-85
2023/09/28 12:16:22;;;;;;;14.07;12.83;;;23.70;99.90;;;;;;5053043;28;20467;-85
2023/09/28 12:18:50;;;;;;;18.10;16.50;;;23.70;99.90;;;;;;5058035;28;20467;-80
2023/09/28 12:21:17;;;;;;;11.90;10.80;;;23.70;99.90;;;;;;5054732;28;20471;-86
2023/09/28 12:23:44;;;;;;;11.67;10.67;;;23.80;99.90;;;;;;5044044;28;20796;-81
2023/09/28 12:26:13;;;;;;;13.63;12.33;;;23.80;99.90;;;;;;5052209;28;20471;-80
2023/09/28 12:28:41;;;;;;;12.17;11.00;;;23.90;99.90;;;;;;5052348;28;20471;-87
2023/09/28 12:31:08;;;;;;;10.93;10.03;;;23.90;99.90;;;;;;5052968;28;20527;-82
2023/09/28 12:33:37;;;;;;;10.97;9.87;;;24.00;99.90;;;;;;5041423;28;20969;-81
2023/09/28 12:36:06;;;;;;;8.73;8.13;;;24.00;99.90;;;;;;5051926;28;20571;-80
2023/09/28 12:38:33;;;;;;;10.00;9.20;;;24.00;99.90;;;;;;5052956;28;20463;-86
2023/09/28 12:41:03;;;;;;;9.90;8.60;;;24.00;99.90;;;;;;5051414;28;20474;-86
2023/09/28 12:43:59;;;;;;;11.03;10.00;;;24.10;99.90;;;;;;5053517;28;20475;-86
2023/09/28 12:46:39;;;;;;;14.80;13.30;;;24.10;99.90;;;;;;5044819;28;20467;-85
2023/09/28 12:49:06;;;;;;;12.00;10.90;;;24.10;99.90;;;;;;5054173;28;20461;-80
2023/09/28 12:51:36;;;;;;;11.87;10.77;;;24.10;99.90;;;;;;5048794;28;20470;-86
2023/09/28 12:54:13;;;;;;;14.10;12.70;;;24.10;99.90;;;;;;5043484;28;20511;-81
2023/09/28 12:56:40;;;;;;;14.60;13.30;;;24.20;99.90;;;;;;5051604;28;20467;-81
2023/09/28 12:59:10;;;;;;;13.10;11.83;;;24.20;99.90;;;;;;5042231;28;20467;-81
2023/09/28 13:01:40;;;;;;;13.47;12.10;;;24.20;99.90;;;;;;5023251;28;20475;-82
2023/09/28 13:04:08;;;;;;;14.73;13.53;;;24.20;99.90;;;;;;5054330;28;20548;-81
2023/09/28 13:06:35;;;;;;;10.33;9.33;;;24.20;99.90;;;;;;5055404;28;20470;-86
2023/09/28 13:09:06;;;;;;;13.30;12.10;;;24.20;99.90;;;;;;5055689;28;20488;-86
2023/09/28 13:11:36;;;;;;;15.93;14.33;;;24.20;99.90;;;;;;5056527;28;20478;-85
2023/09/28 13:14:05;;;;;;;12.30;11.23;;;24.20;99.90;;;;;;5054852;28;20867;-86
2023/09/28 13:16:33;;;;;;;14.33;12.93;;;24.20;99.90;;;;;;5055750;28;20474;-86
2023/09/28 13:19:03;;;;;;;15.10;13.70;;;24.20;99.90;;;;;;5037969;28;20467;-86
2023/09/28 13:21:34;;;;;;;15.93;14.17;;;24.20;99.90;;;;;;5055640;28;20549;-86
2023/09/28 13:24:06;;;;;;;17.87;14.70;;;24.20;99.90;;;;;;5044433;28;20477;-86
2023/09/28 13:26:35;;;;;;;18.63;16.47;;;24.20;99.90;;;;;;5055018;28;20467;-86